sensor_id;sensor_type;location;lat;lon;timestamp;P1;durP1;ratioP1;P2;durP2;ratioP2
13564;SDS011;6854;48.096;11.278;2024-03-07T00:00:08;36.60;;;19.13;;
13564;SDS011;6854;48.096;11.278;2024-03-07T00:02:46;29.23;;;14.40;;
13564;SDS011;6854;48.096;11.278;2024-03-07T00:05:13;33.50;;;18.53;;
13564;SDS011;6854;48.096;11.278;2024-03-07T00:07:39;34.43;;;18.17;;
13564;SDS011;6854;48.096;11.278;2024-03-07T00:10:06;34.07;;;16.70;;
13564;SDS011;6854;48.096;11.278;2024-03-07T00:12:33;37.33;;;18.00;;
13564;SDS011;6854;48.096;11.278;2024-03-07T00:15:00;33.60;;;17.80;;
13564;SDS011;6854;48.096;11.278;2024-03-07T00:17:26;37.90;;;19.33;;
13564;SDS011;6854;48.096;11.278;2024-03-07T00:19:52;40.20;;;20.40;;
13564;SDS011;6854;48.096;11.278;2024-03-07T00:22:19;37.23;;;20.00;;
13564;SDS011;6854;48.096;11.278;2024-03-07T00:24:45;36.17;;;19.90;;
13564;SDS011;6854;48.096;11.278;2024-03-07T00:27:12;38.90;;;18.80;;
13564;SDS011;6854;48.096;11.278;2024-03-07T00:29:39;37.00;;;18.80;;
13564;SDS011;6854;48.096;11.278;2024-03-07T00:32:05;38.50;;;18.50;;
13564;SDS011;6854;48.096;11.278;2024-03-07T00:34:32;38.47;;;18.77;;
13564;SDS011;6854;48.096;11.278;2024-03-07T00:36:58;39.80;;;19.63;;
13564;SDS011;6854;48.096;11.278;2024-03-07T00:39:28;40.90;;;18.03;;
13564;SDS011;6854;48.096;11.278;2024-03-07T00:41:54;39.90;;;18.87;;
13564;SDS011;6854;48.096;11.278;2024-03-07T00:44:20;44.17;;;20.87;;
13564;SDS011;6854;48.096;11.278;2024-03-07T00:46:46;45.17;;;21.23;;
13564;SDS011;6854;48.096;11.278;2024-03-07T00:49:12;47.73;;;18.03;;
13564;SDS011;6854;48.096;11.278;2024-03-07T00:51:38;38.00;;;19.73;;
13564;SDS011;6854;48.096;11.278;2024-03-07T00:54:04;53.80;;;21.70;;
13564;SDS011;6854;48.096;11.278;2024-03-07T00:56:32;46.93;;;21.17;;
13564;SDS011;6854;48.096;11.278;2024-03-07T00:58:58;42.47;;;21.23;;
13564;SDS011;6854;48.096;11.278;2024-03-07T01:01:24;60.13;;;22.00;;
13564;SDS011;6854;48.096;11.278;2024-03-07T01:03:50;40.87;;;20.47;;
13564;SDS011;6854;48.096;11.278;2024-03-07T01:06:16;45.57;;;19.80;;
13564;SDS011;6854;48.096;11.278;2024-03-07T01:08:42;57.60;;;23.70;;
13564;SDS011;6854;48.096;11.278;2024-03-07T01:11:08;54.87;;;21.40;;
13564;SDS011;6854;48.096;11.278;2024-03-07T01:13:36;52.43;;;21.47;;
13564;SDS011;6854;48.096;11.278;2024-03-07T01:16:02;52.60;;;22.00;;
13564;SDS011;6854;48.096;11.278;2024-03-07T01:18:28;65.13;;;23.60;;
13564;SDS011;6854;48.096;11.278;2024-03-07T01:20:54;56.37;;;23.77;;
13564;SDS011;6854;48.096;11.278;2024-03-07T01:23:20;53.40;;;22.00;;
13564;SDS011;6854;48.096;11.278;2024-03-07T01:25:46;52.03;;;22.00;;
13564;SDS011;6854;48.096;11.278;2024-03-07T01:28:13;61.03;;;26.17;;
13564;SDS011;6854;48.096;11.278;2024-03-07T01:30:40;49.77;;;23.30;;
13564;SDS011;6854;48.096;11.278;2024-03-07T01:33:06;62.40;;;24.60;;
13564;SDS011;6854;48.096;11.278;2024-03-07T01:35:32;54.37;;;22.97;;
13564;SDS011;6854;48.096;11.278;2024-03-07T01:37:58;58.27;;;23.23;;
13564;SDS011;6854;48.096;11.278;2024-03-07T01:40:24;68.47;;;26.73;;
13564;SDS011;6854;48.096;11.278;2024-03-07T01:42:50;55.60;;;22.77;;
13564;SDS011;6854;48.096;11.278;2024-03-07T01:45:16;53.37;;;21.57;;
13564;SDS011;6854;48.096;11.278;2024-03-07T01:47:43;65.40;;;24.97;;
13564;SDS011;6854;48.096;11.278;2024-03-07T01:50:09;73.40;;;26.53;;
13564;SDS011;6854;48.096;11.278;2024-03-07T01:52:36;62.20;;;22.90;;
13564;SDS011;6854;48.096;11.278;2024-03-07T01:55:04;59.37;;;24.67;;
13564;SDS011;6854;48.096;11.278;2024-03-07T01:57:32;62.47;;;24.87;;
13564;SDS011;6854;48.096;11.278;2024-03-07T02:00:00;64.53;;;24.10;;
13564;SDS011;6854;48.096;11.278;2024-03-07T02:02:31;66.13;;;25.03;;
13564;SDS011;6854;48.096;11.278;2024-03-07T02:04:57;65.60;;;25.70;;
13564;SDS011;6854;48.096;11.278;2024-03-07T02:07:23;64.23;;;25.60;;
13564;SDS011;6854;48.096;11.278;2024-03-07T02:09:58;75.60;;;27.47;;
13564;SDS011;6854;48.096;11.278;2024-03-07T02:12:25;67.80;;;26.10;;
13564;SDS011;6854;48.096;11.278;2024-03-07T02:14:51;61.97;;;26.00;;
13564;SDS011;6854;48.096;11.278;2024-03-07T02:17:17;70.50;;;26.30;;
13564;SDS011;6854;48.096;11.278;2024-03-07T02:19:45;75.07;;;27.47;;
13564;SDS011;6854;48.096;11.278;2024-03-07T02:22:11;56.70;;;24.67;;
13564;SDS011;6854;48.096;11.278;2024-03-07T02:24:38;61.97;;;24.87;;
13564;SDS011;6854;48.096;11.278;2024-03-07T02:27:04;76.57;;;26.47;;
13564;SDS011;6854;48.096;11.278;2024-03-07T02:29:30;78.73;;;26.77;;
13564;SDS011;6854;48.096;11.278;2024-03-07T02:31:56;75.77;;;26.43;;
13564;SDS011;6854;48.096;11.278;2024-03-07T02:34:22;85.50;;;27.57;;
13564;SDS011;6854;48.096;11.278;2024-03-07T02:36:48;81.83;;;25.07;;
13564;SDS011;6854;48.096;11.278;2024-03-07T02:39:16;81.13;;;27.57;;
13564;SDS011;6854;48.096;11.278;2024-03-07T02:41:42;82.77;;;27.43;;
13564;SDS011;6854;48.096;11.278;2024-03-07T02:44:08;79.77;;;27.77;;
13564;SDS011;6854;48.096;11.278;2024-03-07T02:46:34;75.00;;;26.77;;
13564;SDS011;6854;48.096;11.278;2024-03-07T02:49:00;75.20;;;27.30;;
13564;SDS011;6854;48.096;11.278;2024-03-07T02:51:26;102.03;;;30.43;;
13564;SDS011;6854;48.096;11.278;2024-03-07T02:53:52;99.77;;;27.97;;
13564;SDS011;6854;48.096;11.278;2024-03-07T02:56:18;94.97;;;28.60;;
13564;SDS011;6854;48.096;11.278;2024-03-07T02:58:44;86.87;;;29.00;;
13564;SDS011;6854;48.096;11.278;2024-03-07T03:01:11;92.20;;;30.80;;
13564;SDS011;6854;48.096;11.278;2024-03-07T03:03:37;91.03;;;29.30;;
13564;SDS011;6854;48.096;11.278;2024-03-07T03:06:07;79.23;;;28.80;;
13564;SDS011;6854;48.096;11.278;2024-03-07T03:08:33;94.17;;;29.37;;
13564;SDS011;6854;48.096;11.278;2024-03-07T03:11:00;97.20;;;29.20;;
13564;SDS011;6854;48.096;11.278;2024-03-07T03:13:26;103.87;;;32.40;;
13564;SDS011;6854;48.096;11.278;2024-03-07T03:15:55;94.73;;;28.53;;
13564;SDS011;6854;48.096;11.278;2024-03-07T03:18:24;93.30;;;28.63;;
13564;SDS011;6854;48.096;11.278;2024-03-07T03:20:50;103.30;;;30.47;;
13564;SDS011;6854;48.096;11.278;2024-03-07T03:23:18;101.70;;;33.17;;
13564;SDS011;6854;48.096;11.278;2024-03-07T03:25:44;107.20;;;31.80;;
13564;SDS011;6854;48.096;11.278;2024-03-07T03:28:13;128.43;;;30.40;;
13564;SDS011;6854;48.096;11.278;2024-03-07T03:30:40;87.27;;;30.00;;
13564;SDS011;6854;48.096;11.278;2024-03-07T03:33:06;93.93;;;31.30;;
13564;SDS011;6854;48.096;11.278;2024-03-07T03:35:36;100.00;;;31.33;;
13564;SDS011;6854;48.096;11.278;2024-03-07T03:38:02;86.03;;;30.37;;
13564;SDS011;6854;48.096;11.278;2024-03-07T03:40:28;110.50;;;33.47;;
13564;SDS011;6854;48.096;11.278;2024-03-07T03:42:54;119.93;;;36.17;;
13564;SDS011;6854;48.096;11.278;2024-03-07T03:45:21;104.27;;;32.37;;
13564;SDS011;6854;48.096;11.278;2024-03-07T03:47:47;95.00;;;29.33;;
13564;SDS011;6854;48.096;11.278;2024-03-07T03:50:13;136.13;;;34.50;;
13564;SDS011;6854;48.096;11.278;2024-03-07T03:52:39;115.97;;;35.50;;
13564;SDS011;6854;48.096;11.278;2024-03-07T03:55:06;113.80;;;36.00;;
13564;SDS011;6854;48.096;11.278;2024-03-07T03:57:38;116.73;;;36.10;;
13564;SDS011;6854;48.096;11.278;2024-03-07T04:00:05;115.70;;;35.90;;
13564;SDS011;6854;48.096;11.278;2024-03-07T04:02:37;112.87;;;35.93;;
13564;SDS011;6854;48.096;11.278;2024-03-07T04:05:03;114.37;;;35.87;;
13564;SDS011;6854;48.096;11.278;2024-03-07T04:07:30;100.77;;;36.40;;
13564;SDS011;6854;48.096;11.278;2024-03-07T04:10:00;118.53;;;35.23;;
13564;SDS011;6854;48.096;11.278;2024-03-07T04:12:28;117.50;;;38.27;;
13564;SDS011;6854;48.096;11.278;2024-03-07T04:14:54;123.50;;;41.07;;
13564;SDS011;6854;48.096;11.278;2024-03-07T04:17:20;109.00;;;34.67;;
13564;SDS011;6854;48.096;11.278;2024-03-07T04:19:47;150.53;;;43.27;;
13564;SDS011;6854;48.096;11.278;2024-03-07T04:22:13;142.40;;;44.07;;
13564;SDS011;6854;48.096;11.278;2024-03-07T04:24:39;162.17;;;46.50;;
13564;SDS011;6854;48.096;11.278;2024-03-07T04:27:08;165.13;;;48.50;;
13564;SDS011;6854;48.096;11.278;2024-03-07T04:29:35;153.20;;;50.00;;
13564;SDS011;6854;48.096;11.278;2024-03-07T04:32:01;158.43;;;50.73;;
13564;SDS011;6854;48.096;11.278;2024-03-07T04:34:28;161.53;;;50.30;;
13564;SDS011;6854;48.096;11.278;2024-03-07T04:37:01;138.90;;;45.33;;
13564;SDS011;6854;48.096;11.278;2024-03-07T04:39:29;157.23;;;51.67;;
13564;SDS011;6854;48.096;11.278;2024-03-07T04:42:03;159.80;;;51.77;;
13564;SDS011;6854;48.096;11.278;2024-03-07T04:44:31;170.53;;;55.33;;
13564;SDS011;6854;48.096;11.278;2024-03-07T04:46:58;194.47;;;57.67;;
13564;SDS011;6854;48.096;11.278;2024-03-07T04:49:25;167.37;;;51.23;;
13564;SDS011;6854;48.096;11.278;2024-03-07T04:51:52;169.57;;;54.73;;
13564;SDS011;6854;48.096;11.278;2024-03-07T04:54:18;176.40;;;54.07;;
13564;SDS011;6854;48.096;11.278;2024-03-07T04:56:49;182.90;;;56.70;;
13564;SDS011;6854;48.096;11.278;2024-03-07T04:59:15;187.17;;;54.60;;
13564;SDS011;6854;48.096;11.278;2024-03-07T05:01:41;162.80;;;50.20;;
13564;SDS011;6854;48.096;11.278;2024-03-07T05:04:08;195.80;;;56.93;;
13564;SDS011;6854;48.096;11.278;2024-03-07T05:06:34;193.77;;;55.53;;
13564;SDS011;6854;48.096;11.278;2024-03-07T05:09:00;158.10;;;50.60;;
13564;SDS011;6854;48.096;11.278;2024-03-07T05:11:30;175.57;;;52.40;;
13564;SDS011;6854;48.096;11.278;2024-03-07T05:13:57;174.07;;;53.50;;
13564;SDS011;6854;48.096;11.278;2024-03-07T05:16:26;182.83;;;51.70;;
13564;SDS011;6854;48.096;11.278;2024-03-07T05:18:52;171.57;;;50.80;;
13564;SDS011;6854;48.096;11.278;2024-03-07T05:21:19;176.00;;;50.90;;
13564;SDS011;6854;48.096;11.278;2024-03-07T05:24:00;169.07;;;47.50;;
13564;SDS011;6854;48.096;11.278;2024-03-07T05:26:26;175.70;;;49.00;;
13564;SDS011;6854;48.096;11.278;2024-03-07T05:28:53;163.97;;;46.43;;
13564;SDS011;6854;48.096;11.278;2024-03-07T05:31:21;186.77;;;50.60;;
13564;SDS011;6854;48.096;11.278;2024-03-07T05:33:47;207.40;;;50.77;;
13564;SDS011;6854;48.096;11.278;2024-03-07T05:36:13;178.20;;;51.00;;
13564;SDS011;6854;48.096;11.278;2024-03-07T05:38:40;186.67;;;48.60;;
13564;SDS011;6854;48.096;11.278;2024-03-07T05:41:08;185.77;;;51.37;;
13564;SDS011;6854;48.096;11.278;2024-03-07T05:43:35;197.43;;;51.33;;
13564;SDS011;6854;48.096;11.278;2024-03-07T05:46:01;179.50;;;50.17;;
13564;SDS011;6854;48.096;11.278;2024-03-07T05:48:30;175.30;;;51.57;;
13564;SDS011;6854;48.096;11.278;2024-03-07T05:50:56;192.53;;;52.57;;
13564;SDS011;6854;48.096;11.278;2024-03-07T05:53:22;207.33;;;55.67;;
13564;SDS011;6854;48.096;11.278;2024-03-07T05:55:49;205.93;;;55.37;;
13564;SDS011;6854;48.096;11.278;2024-03-07T05:58:17;202.83;;;57.27;;
13564;SDS011;6854;48.096;11.278;2024-03-07T06:00:45;198.53;;;53.20;;
13564;SDS011;6854;48.096;11.278;2024-03-07T06:03:18;206.50;;;57.07;;
13564;SDS011;6854;48.096;11.278;2024-03-07T06:05:47;205.37;;;60.17;;
13564;SDS011;6854;48.096;11.278;2024-03-07T06:08:15;195.83;;;59.93;;
13564;SDS011;6854;48.096;11.278;2024-03-07T06:10:42;223.63;;;61.57;;
13564;SDS011;6854;48.096;11.278;2024-03-07T06:13:08;220.43;;;62.20;;
13564;SDS011;6854;48.096;11.278;2024-03-07T06:15:37;205.20;;;59.27;;
13564;SDS011;6854;48.096;11.278;2024-03-07T06:18:03;227.53;;;60.37;;
13564;SDS011;6854;48.096;11.278;2024-03-07T06:20:30;209.27;;;56.20;;
13564;SDS011;6854;48.096;11.278;2024-03-07T06:22:57;210.10;;;61.00;;
13564;SDS011;6854;48.096;11.278;2024-03-07T06:25:24;193.60;;;58.10;;
13564;SDS011;6854;48.096;11.278;2024-03-07T06:28:01;213.00;;;62.03;;
13564;SDS011;6854;48.096;11.278;2024-03-07T06:30:38;199.47;;;62.00;;
13564;SDS011;6854;48.096;11.278;2024-03-07T06:33:08;205.07;;;60.33;;
13564;SDS011;6854;48.096;11.278;2024-03-07T06:35:35;193.27;;;58.93;;
13564;SDS011;6854;48.096;11.278;2024-03-07T06:41:05;204.43;;;59.40;;
13564;SDS011;6854;48.096;11.278;2024-03-07T06:43:35;212.17;;;60.10;;
13564;SDS011;6854;48.096;11.278;2024-03-07T06:46:01;223.30;;;62.00;;
13564;SDS011;6854;48.096;11.278;2024-03-07T06:48:28;213.50;;;63.33;;
13564;SDS011;6854;48.096;11.278;2024-03-07T06:50:54;211.47;;;65.47;;
13564;SDS011;6854;48.096;11.278;2024-03-07T06:53:20;209.53;;;64.17;;
13564;SDS011;6854;48.096;11.278;2024-03-07T06:55:51;217.63;;;64.60;;
13564;SDS011;6854;48.096;11.278;2024-03-07T06:58:18;205.47;;;64.20;;
13564;SDS011;6854;48.096;11.278;2024-03-07T07:00:44;185.23;;;60.77;;
13564;SDS011;6854;48.096;11.278;2024-03-07T07:03:10;183.10;;;58.73;;
13564;SDS011;6854;48.096;11.278;2024-03-07T07:05:38;191.43;;;64.07;;
13564;SDS011;6854;48.096;11.278;2024-03-07T07:08:06;190.27;;;62.67;;
13564;SDS011;6854;48.096;11.278;2024-03-07T07:10:32;190.13;;;60.37;;
13564;SDS011;6854;48.096;11.278;2024-03-07T07:12:59;166.37;;;59.23;;
13564;SDS011;6854;48.096;11.278;2024-03-07T07:15:25;169.30;;;58.77;;
13564;SDS011;6854;48.096;11.278;2024-03-07T07:17:51;184.67;;;58.60;;
13564;SDS011;6854;48.096;11.278;2024-03-07T07:20:18;180.93;;;63.00;;
13564;SDS011;6854;48.096;11.278;2024-03-07T07:22:45;177.63;;;63.10;;
13564;SDS011;6854;48.096;11.278;2024-03-07T07:25:11;170.50;;;59.20;;
13564;SDS011;6854;48.096;11.278;2024-03-07T07:27:48;175.17;;;58.97;;
13564;SDS011;6854;48.096;11.278;2024-03-07T07:30:14;154.20;;;58.73;;
13564;SDS011;6854;48.096;11.278;2024-03-07T07:32:41;148.53;;;54.20;;
13564;SDS011;6854;48.096;11.278;2024-03-07T07:35:08;148.57;;;55.53;;
13564;SDS011;6854;48.096;11.278;2024-03-07T07:37:37;157.03;;;56.77;;
13564;SDS011;6854;48.096;11.278;2024-03-07T07:40:04;140.57;;;55.40;;
13564;SDS011;6854;48.096;11.278;2024-03-07T07:42:33;143.07;;;54.43;;
13564;SDS011;6854;48.096;11.278;2024-03-07T07:45:01;136.67;;;56.13;;
13564;SDS011;6854;48.096;11.278;2024-03-07T07:47:27;153.90;;;55.07;;
13564;SDS011;6854;48.096;11.278;2024-03-07T07:49:55;130.60;;;53.27;;
13564;SDS011;6854;48.096;11.278;2024-03-07T07:52:21;127.17;;;52.17;;
13564;SDS011;6854;48.096;11.278;2024-03-07T07:54:47;131.27;;;53.17;;
13564;SDS011;6854;48.096;11.278;2024-03-07T07:57:13;125.87;;;52.70;;
13564;SDS011;6854;48.096;11.278;2024-03-07T07:59:39;117.60;;;50.23;;
13564;SDS011;6854;48.096;11.278;2024-03-07T08:02:05;103.13;;;47.57;;
13564;SDS011;6854;48.096;11.278;2024-03-07T08:04:31;112.73;;;50.77;;
13564;SDS011;6854;48.096;11.278;2024-03-07T08:07:00;116.53;;;48.50;;
13564;SDS011;6854;48.096;11.278;2024-03-07T08:09:31;135.83;;;50.47;;
13564;SDS011;6854;48.096;11.278;2024-03-07T08:11:58;114.97;;;53.07;;
13564;SDS011;6854;48.096;11.278;2024-03-07T08:14:27;118.20;;;49.00;;
13564;SDS011;6854;48.096;11.278;2024-03-07T08:16:54;110.83;;;47.00;;
13564;SDS011;6854;48.096;11.278;2024-03-07T08:19:21;96.00;;;42.87;;
13564;SDS011;6854;48.096;11.278;2024-03-07T08:21:49;103.20;;;46.20;;
13564;SDS011;6854;48.096;11.278;2024-03-07T08:24:15;107.00;;;49.13;;
13564;SDS011;6854;48.096;11.278;2024-03-07T08:26:41;91.87;;;46.50;;
13564;SDS011;6854;48.096;11.278;2024-03-07T08:29:09;94.67;;;46.83;;
13564;SDS011;6854;48.096;11.278;2024-03-07T08:31:36;88.47;;;43.87;;
13564;SDS011;6854;48.096;11.278;2024-03-07T08:34:03;89.20;;;43.90;;
13564;SDS011;6854;48.096;11.278;2024-03-07T08:36:29;89.80;;;45.10;;
13564;SDS011;6854;48.096;11.278;2024-03-07T08:38:55;88.20;;;43.67;;
13564;SDS011;6854;48.096;11.278;2024-03-07T08:41:21;73.63;;;41.60;;
13564;SDS011;6854;48.096;11.278;2024-03-07T08:43:47;91.73;;;44.80;;
13564;SDS011;6854;48.096;11.278;2024-03-07T08:46:14;88.63;;;44.40;;
13564;SDS011;6854;48.096;11.278;2024-03-07T08:48:40;102.13;;;47.20;;
13564;SDS011;6854;48.096;11.278;2024-03-07T08:51:06;81.73;;;44.30;;
13564;SDS011;6854;48.096;11.278;2024-03-07T08:53:32;86.13;;;43.90;;
13564;SDS011;6854;48.096;11.278;2024-03-07T08:55:58;91.37;;;42.90;;
13564;SDS011;6854;48.096;11.278;2024-03-07T08:58:28;83.90;;;43.53;;
13564;SDS011;6854;48.096;11.278;2024-03-07T09:00:54;96.83;;;42.37;;
13564;SDS011;6854;48.096;11.278;2024-03-07T09:03:20;89.40;;;43.57;;
13564;SDS011;6854;48.096;11.278;2024-03-07T09:05:46;89.97;;;42.23;;
13564;SDS011;6854;48.096;11.278;2024-03-07T09:08:12;85.70;;;45.27;;
13564;SDS011;6854;48.096;11.278;2024-03-07T09:10:38;90.00;;;43.50;;
13564;SDS011;6854;48.096;11.278;2024-03-07T09:13:08;86.80;;;43.67;;
13564;SDS011;6854;48.096;11.278;2024-03-07T09:15:34;89.53;;;43.57;;
13564;SDS011;6854;48.096;11.278;2024-03-07T09:18:02;86.83;;;43.60;;
13564;SDS011;6854;48.096;11.278;2024-03-07T09:20:28;93.43;;;43.70;;
13564;SDS011;6854;48.096;11.278;2024-03-07T09:22:57;87.27;;;39.80;;
13564;SDS011;6854;48.096;11.278;2024-03-07T09:25:25;83.83;;;43.93;;
13564;SDS011;6854;48.096;11.278;2024-03-07T09:27:52;87.93;;;44.97;;
13564;SDS011;6854;48.096;11.278;2024-03-07T09:30:19;85.93;;;47.20;;
13564;SDS011;6854;48.096;11.278;2024-03-07T09:32:49;84.77;;;42.27;;
13564;SDS011;6854;48.096;11.278;2024-03-07T09:44:40;75.60;;;40.17;;
13564;SDS011;6854;48.096;11.278;2024-03-07T09:47:25;72.50;;;38.10;;
13564;SDS011;6854;48.096;11.278;2024-03-07T09:50:26;79.80;;;37.27;;
13564;SDS011;6854;48.096;11.278;2024-03-07T09:53:40;66.60;;;38.30;;
13564;SDS011;6854;48.096;11.278;2024-03-07T09:56:08;85.63;;;42.77;;
13564;SDS011;6854;48.096;11.278;2024-03-07T09:58:35;88.87;;;43.07;;
13564;SDS011;6854;48.096;11.278;2024-03-07T10:01:02;73.27;;;42.60;;
13564;SDS011;6854;48.096;11.278;2024-03-07T10:03:32;73.00;;;42.20;;
13564;SDS011;6854;48.096;11.278;2024-03-07T10:06:02;75.83;;;42.17;;
13564;SDS011;6854;48.096;11.278;2024-03-07T10:08:30;84.43;;;40.97;;
13564;SDS011;6854;48.096;11.278;2024-03-07T10:10:57;84.53;;;41.97;;
13564;SDS011;6854;48.096;11.278;2024-03-07T10:13:23;77.10;;;39.43;;
13564;SDS011;6854;48.096;11.278;2024-03-07T10:15:51;77.20;;;41.80;;
13564;SDS011;6854;48.096;11.278;2024-03-07T10:18:18;76.67;;;42.80;;
13564;SDS011;6854;48.096;11.278;2024-03-07T10:20:48;77.63;;;41.90;;
13564;SDS011;6854;48.096;11.278;2024-03-07T10:23:20;74.43;;;40.90;;
13564;SDS011;6854;48.096;11.278;2024-03-07T10:25:56;80.87;;;39.97;;
13564;SDS011;6854;48.096;11.278;2024-03-07T10:28:22;72.70;;;39.07;;
13564;SDS011;6854;48.096;11.278;2024-03-07T10:30:49;75.77;;;41.40;;
13564;SDS011;6854;48.096;11.278;2024-03-07T10:33:15;79.37;;;40.80;;
13564;SDS011;6854;48.096;11.278;2024-03-07T10:35:41;92.17;;;41.03;;
13564;SDS011;6854;48.096;11.278;2024-03-07T10:38:07;80.53;;;41.77;;
13564;SDS011;6854;48.096;11.278;2024-03-07T10:40:37;77.70;;;39.20;;
13564;SDS011;6854;48.096;11.278;2024-03-07T10:43:07;81.07;;;45.47;;
13564;SDS011;6854;48.096;11.278;2024-03-07T10:45:35;85.20;;;41.27;;
13564;SDS011;6854;48.096;11.278;2024-03-07T10:48:03;75.63;;;38.10;;
13564;SDS011;6854;48.096;11.278;2024-03-07T10:53:14;68.37;;;39.33;;
13564;SDS011;6854;48.096;11.278;2024-03-07T11:00:35;76.40;;;37.93;;
13564;SDS011;6854;48.096;11.278;2024-03-07T11:03:01;71.07;;;38.00;;
13564;SDS011;6854;48.096;11.278;2024-03-07T11:05:34;62.73;;;36.20;;
13564;SDS011;6854;48.096;11.278;2024-03-07T11:08:02;59.50;;;36.53;;
13564;SDS011;6854;48.096;11.278;2024-03-07T11:10:36;64.93;;;34.57;;
13564;SDS011;6854;48.096;11.278;2024-03-07T11:13:03;58.60;;;33.30;;
13564;SDS011;6854;48.096;11.278;2024-03-07T11:15:30;66.43;;;36.07;;
13564;SDS011;6854;48.096;11.278;2024-03-07T11:17:59;61.90;;;34.07;;
13564;SDS011;6854;48.096;11.278;2024-03-07T11:20:26;59.50;;;35.03;;
13564;SDS011;6854;48.096;11.278;2024-03-07T11:22:52;57.63;;;33.17;;
13564;SDS011;6854;48.096;11.278;2024-03-07T11:25:20;52.73;;;31.60;;
13564;SDS011;6854;48.096;11.278;2024-03-07T11:27:58;58.80;;;32.10;;
13564;SDS011;6854;48.096;11.278;2024-03-07T11:30:25;57.30;;;31.13;;
13564;SDS011;6854;48.096;11.278;2024-03-07T11:32:53;58.83;;;31.13;;
13564;SDS011;6854;48.096;11.278;2024-03-07T11:35:34;56.03;;;30.93;;
13564;SDS011;6854;48.096;11.278;2024-03-07T11:38:05;51.73;;;31.40;;
13564;SDS011;6854;48.096;11.278;2024-03-07T11:43:01;53.00;;;30.40;;
13564;SDS011;6854;48.096;11.278;2024-03-07T11:45:30;52.37;;;32.10;;
13564;SDS011;6854;48.096;11.278;2024-03-07T11:48:03;52.23;;;27.93;;
13564;SDS011;6854;48.096;11.278;2024-03-07T11:50:34;52.67;;;31.13;;
13564;SDS011;6854;48.096;11.278;2024-03-07T11:53:00;50.87;;;29.30;;
13564;SDS011;6854;48.096;11.278;2024-03-07T11:55:27;52.83;;;28.70;;
13564;SDS011;6854;48.096;11.278;2024-03-07T11:58:17;49.80;;;28.17;;
13564;SDS011;6854;48.096;11.278;2024-03-07T12:00:48;52.87;;;28.77;;
13564;SDS011;6854;48.096;11.278;2024-03-07T12:03:18;49.83;;;28.97;;
13564;SDS011;6854;48.096;11.278;2024-03-07T12:05:51;44.07;;;27.23;;
13564;SDS011;6854;48.096;11.278;2024-03-07T12:08:17;50.80;;;28.03;;
13564;SDS011;6854;48.096;11.278;2024-03-07T12:10:48;52.03;;;28.77;;
13564;SDS011;6854;48.096;11.278;2024-03-07T12:13:24;48.60;;;27.40;;
13564;SDS011;6854;48.096;11.278;2024-03-07T12:15:53;48.00;;;25.87;;
13564;SDS011;6854;48.096;11.278;2024-03-07T12:20:59;46.23;;;27.57;;
13564;SDS011;6854;48.096;11.278;2024-03-07T12:23:31;50.00;;;28.03;;
13564;SDS011;6854;48.096;11.278;2024-03-07T12:26:02;41.53;;;24.90;;
13564;SDS011;6854;48.096;11.278;2024-03-07T12:28:28;46.67;;;26.30;;
13564;SDS011;6854;48.096;11.278;2024-03-07T12:30:58;49.33;;;26.57;;
13564;SDS011;6854;48.096;11.278;2024-03-07T12:33:27;43.13;;;25.50;;
13564;SDS011;6854;48.096;11.278;2024-03-07T12:35:54;43.20;;;25.33;;
13564;SDS011;6854;48.096;11.278;2024-03-07T12:38:31;45.03;;;25.67;;
13564;SDS011;6854;48.096;11.278;2024-03-07T12:41:06;45.67;;;25.30;;
13564;SDS011;6854;48.096;11.278;2024-03-07T12:43:33;45.13;;;26.23;;
13564;SDS011;6854;48.096;11.278;2024-03-07T12:45:59;48.23;;;27.00;;
13564;SDS011;6854;48.096;11.278;2024-03-07T12:48:26;35.63;;;19.43;;
13564;SDS011;6854;48.096;11.278;2024-03-07T12:50:52;35.83;;;24.80;;
13564;SDS011;6854;48.096;11.278;2024-03-07T12:53:19;38.97;;;24.77;;
13564;SDS011;6854;48.096;11.278;2024-03-07T12:55:46;35.93;;;21.63;;
13564;SDS011;6854;48.096;11.278;2024-03-07T12:58:12;42.07;;;24.93;;
13564;SDS011;6854;48.096;11.278;2024-03-07T13:00:39;33.87;;;22.33;;
13564;SDS011;6854;48.096;11.278;2024-03-07T13:03:08;37.67;;;24.17;;
13564;SDS011;6854;48.096;11.278;2024-03-07T13:05:37;38.23;;;23.73;;
13564;SDS011;6854;48.096;11.278;2024-03-07T13:08:05;37.77;;;24.07;;
13564;SDS011;6854;48.096;11.278;2024-03-07T13:10:36;41.33;;;26.07;;
13564;SDS011;6854;48.096;11.278;2024-03-07T13:13:02;56.73;;;26.73;;
13564;SDS011;6854;48.096;11.278;2024-03-07T13:15:29;40.57;;;24.33;;
13564;SDS011;6854;48.096;11.278;2024-03-07T13:17:55;49.13;;;26.60;;
13564;SDS011;6854;48.096;11.278;2024-03-07T13:20:21;45.87;;;23.97;;
13564;SDS011;6854;48.096;11.278;2024-03-07T13:22:51;38.53;;;24.80;;
13564;SDS011;6854;48.096;11.278;2024-03-07T13:25:27;46.83;;;24.70;;
13564;SDS011;6854;48.096;11.278;2024-03-07T13:27:57;42.00;;;24.03;;
13564;SDS011;6854;48.096;11.278;2024-03-07T13:30:25;44.00;;;24.43;;
13564;SDS011;6854;48.096;11.278;2024-03-07T13:32:52;46.77;;;25.33;;
13564;SDS011;6854;48.096;11.278;2024-03-07T13:35:19;40.00;;;22.53;;
13564;SDS011;6854;48.096;11.278;2024-03-07T13:37:46;41.70;;;25.93;;
13564;SDS011;6854;48.096;11.278;2024-03-07T13:40:12;42.90;;;24.53;;
13564;SDS011;6854;48.096;11.278;2024-03-07T13:42:48;46.30;;;25.97;;
13564;SDS011;6854;48.096;11.278;2024-03-07T13:45:16;45.43;;;24.80;;
13564;SDS011;6854;48.096;11.278;2024-03-07T13:47:43;42.50;;;24.63;;
13564;SDS011;6854;48.096;11.278;2024-03-07T13:50:09;41.43;;;24.17;;
13564;SDS011;6854;48.096;11.278;2024-03-07T13:52:37;44.27;;;26.30;;
13564;SDS011;6854;48.096;11.278;2024-03-07T13:55:09;42.23;;;25.03;;
13564;SDS011;6854;48.096;11.278;2024-03-07T13:57:49;46.57;;;26.60;;
13564;SDS011;6854;48.096;11.278;2024-03-07T14:05:27;46.73;;;25.10;;
13564;SDS011;6854;48.096;11.278;2024-03-07T14:08:09;49.53;;;26.00;;
13564;SDS011;6854;48.096;11.278;2024-03-07T14:11:01;44.00;;;25.20;;
13564;SDS011;6854;48.096;11.278;2024-03-07T14:21:50;42.80;;;23.40;;
13564;SDS011;6854;48.096;11.278;2024-03-07T14:32:09;44.90;;;23.30;;
13564;SDS011;6854;48.096;11.278;2024-03-07T14:34:47;46.90;;;24.30;;
13564;SDS011;6854;48.096;11.278;2024-03-07T14:37:29;47.07;;;23.77;;
13564;SDS011;6854;48.096;11.278;2024-03-07T14:40:08;45.43;;;23.73;;
13564;SDS011;6854;48.096;11.278;2024-03-07T14:42:43;48.87;;;23.77;;
13564;SDS011;6854;48.096;11.278;2024-03-07T14:45:11;40.43;;;22.30;;
13564;SDS011;6854;48.096;11.278;2024-03-07T14:47:38;39.20;;;23.20;;
13564;SDS011;6854;48.096;11.278;2024-03-07T14:50:04;41.20;;;23.93;;
13564;SDS011;6854;48.096;11.278;2024-03-07T14:52:37;40.83;;;23.60;;
13564;SDS011;6854;48.096;11.278;2024-03-07T14:55:07;41.10;;;22.50;;
13564;SDS011;6854;48.096;11.278;2024-03-07T14:57:36;41.10;;;23.80;;
13564;SDS011;6854;48.096;11.278;2024-03-07T15:00:09;47.23;;;25.33;;
13564;SDS011;6854;48.096;11.278;2024-03-07T15:02:46;42.37;;;23.50;;
13564;SDS011;6854;48.096;11.278;2024-03-07T15:05:12;42.63;;;23.27;;
13564;SDS011;6854;48.096;11.278;2024-03-07T15:07:40;45.57;;;22.80;;